sensor_id;sensor_type;location;lat;lon;timestamp;pressure;altitude;pressure_sealevel;temperature;humidity
66021;BME280;52789;59.980;30.346;2023-05-10T00:02:04;102338.56;;;6.61;56.53
66021;BME280;52789;59.980;30.346;2023-05-10T00:04:29;102331.56;;;6.60;56.57
66021;BME280;52789;59.980;30.346;2023-05-10T00:06:54;102328.19;;;6.58;56.76
66021;BME280;52789;59.980;30.346;2023-05-10T00:09:20;102324.78;;;6.56;57.84
66021;BME280;52789;59.980;30.346;2023-05-10T00:11:45;102323.09;;;6.55;57.86
66021;BME280;52789;59.980;30.346;2023-05-10T00:14:11;102333.66;;;6.55;57.83
66021;BME280;52789;59.980;30.346;2023-05-10T00:16:36;102331.97;;;6.53;57.72
66021;BME280;52789;59.980;30.346;2023-05-10T00:19:01;102330.28;;;6.52;56.96
66021;BME280;52789;59.980;30.346;2023-05-10T00:21:27;102327.63;;;6.52;57.53
66021;BME280;52789;59.980;30.346;2023-05-10T00:23:53;102335.78;;;6.49;58.72
66021;BME280;52789;59.980;30.346;2023-05-10T00:26:18;102338.41;;;6.49;57.76
66021;BME280;52789;59.980;30.346;2023-05-10T00:28:44;102337.66;;;6.47;58.13
66021;BME280;52789;59.980;30.346;2023-05-10T00:31:09;102335.22;;;6.44;58.84
66021;BME280;52789;59.980;30.346;2023-05-10T00:33:34;102339.75;;;6.42;58.84
66021;BME280;52789;59.980;30.346;2023-05-10T00:36:00;102345.16;;;6.41;58.76
66021;BME280;52789;59.980;30.346;2023-05-10T00:38:25;102343.56;;;6.38;59.42
66021;BME280;52789;59.980;30.346;2023-05-10T00:40:51;102343.66;;;6.37;59.86
66021;BME280;52789;59.980;30.346;2023-05-10T00:43:16;102344.66;;;6.34;59.92
66021;BME280;52789;59.980;30.346;2023-05-10T00:45:41;102350.91;;;6.33;60.18
66021;BME280;52789;59.980;30.346;2023-05-10T00:48:07;102337.88;;;6.30;60.67
66021;BME280;52789;59.980;30.346;2023-05-10T00:50:33;102343.34;;;6.27;62.26
66021;BME280;52789;59.980;30.346;2023-05-10T00:52:59;102337.31;;;6.25;61.23
66021;BME280;52789;59.980;30.346;2023-05-10T00:55:24;102341.66;;;6.26;57.47
66021;BME280;52789;59.980;30.346;2023-05-10T00:57:50;102340.41;;;6.32;56.96
66021;BME280;52789;59.980;30.346;2023-05-10T01:00:17;102336.72;;;6.34;60.16
66021;BME280;52789;59.980;30.346;2023-05-10T01:02:47;102349.19;;;6.32;59.85
66021;BME280;52789;59.980;30.346;2023-05-10T01:05:12;102339.88;;;6.27;60.01
66021;BME280;52789;59.980;30.346;2023-05-10T01:07:38;102345.34;;;6.24;58.36
66021;BME280;52789;59.980;30.346;2023-05-10T01:10:04;102342.69;;;6.24;59.85
66021;BME280;52789;59.980;30.346;2023-05-10T01:12:29;102344.59;;;6.21;59.46
66021;BME280;52789;59.980;30.346;2023-05-10T01:14:55;102347.53;;;6.17;60.17
66021;BME280;52789;59.980;30.346;2023-05-10T01:17:20;102347.72;;;6.14;60.88
66021;BME280;52789;59.980;30.346;2023-05-10T01:19:46;102344.44;;;6.10;60.45
66021;BME280;52789;59.980;30.346;2023-05-10T01:37:20;102329.94;;;6.02;60.30
66021;BME280;52789;59.980;30.346;2023-05-10T01:39:47;102328.16;;;6.02;60.81
66021;BME280;52789;59.980;30.346;2023-05-10T01:42:16;102321.91;;;6.03;60.09
66021;BME280;52789;59.980;30.346;2023-05-10T01:44:45;102322.69;;;6.05;59.60
66021;BME280;52789;59.980;30.346;2023-05-10T01:47:15;102321.72;;;6.06;60.82
66021;BME280;52789;59.980;30.346;2023-05-10T01:49:52;102324.31;;;6.08;59.91
66021;BME280;52789;59.980;30.346;2023-05-10T01:52:18;102324.88;;;6.13;59.87
66021;BME280;52789;59.980;30.346;2023-05-10T01:54:49;102323.81;;;6.15;59.20
66021;BME280;52789;59.980;30.346;2023-05-10T01:57:15;102326.28;;;6.18;59.53
66021;BME280;52789;59.980;30.346;2023-05-10T01:59:43;102327.88;;;6.21;60.58
66021;BME280;52789;59.980;30.346;2023-05-10T02:02:10;102322.28;;;6.26;60.27
66021;BME280;52789;59.980;30.346;2023-05-10T02:04:37;102318.59;;;6.28;60.29
66021;BME280;52789;59.980;30.346;2023-05-10T02:07:03;102322.75;;;6.32;59.84
66021;BME280;52789;59.980;30.346;2023-05-10T02:09:29;102323.41;;;6.36;58.73
66021;BME280;52789;59.980;30.346;2023-05-10T02:11:57;102329.47;;;6.38;58.82
66021;BME280;52789;59.980;30.346;2023-05-10T02:14:24;102322.19;;;6.41;59.04
66021;BME280;52789;59.980;30.346;2023-05-10T02:16:51;102324.63;;;6.44;58.76
66021;BME280;52789;59.980;30.346;2023-05-10T02:19:18;102325.38;;;6.46;59.30
66021;BME280;52789;59.980;30.346;2023-05-10T02:22:04;102327.06;;;6.47;58.74
66021;BME280;52789;59.980;30.346;2023-05-10T02:24:30;102330.47;;;6.49;58.64
66021;BME280;52789;59.980;30.346;2023-05-10T02:26:57;102337.47;;;6.50;58.31
66021;BME280;52789;59.980;30.346;2023-05-10T02:29:23;102337.38;;;6.52;57.57
66021;BME280;52789;59.980;30.346;2023-05-10T02:31:50;102328.56;;;6.51;58.52
66021;BME280;52789;59.980;30.346;2023-05-10T02:34:16;102328.56;;;6.51;58.94
66021;BME280;52789;59.980;30.346;2023-05-10T02:36:42;102333.66;;;6.55;58.64
66021;BME280;52789;59.980;30.346;2023-05-10T02:39:07;102335.38;;;6.56;59.55
66021;BME280;52789;59.980;30.346;2023-05-10T02:41:37;102335.16;;;6.59;59.17
66021;BME280;52789;59.980;30.346;2023-05-10T02:44:03;102341.22;;;6.61;58.46
66021;BME280;52789;59.980;30.346;2023-05-10T02:46:31;102339.31;;;6.63;59.23
66021;BME280;52789;59.980;30.346;2023-05-10T02:48:57;102332.91;;;6.67;59.68
66021;BME280;52789;59.980;30.346;2023-05-10T02:51:24;102333.56;;;6.70;59.46
66021;BME280;52789;59.980;30.346;2023-05-10T02:53:50;102335.03;;;6.74;60.18
66021;BME280;52789;59.980;30.346;2023-05-10T02:56:25;102341.75;;;6.80;59.71
66021;BME280;52789;59.980;30.346;2023-05-10T02:58:54;102340.38;;;6.87;59.13
66021;BME280;52789;59.980;30.346;2023-05-10T03:01:20;102337.53;;;6.90;59.91
66021;BME280;52789;59.980;30.346;2023-05-10T03:03:46;102337.31;;;6.93;59.32
66021;BME280;52789;59.980;30.346;2023-05-10T03:06:12;102338.84;;;6.97;59.99
66021;BME280;52789;59.980;30.346;2023-05-10T03:08:37;102330.94;;;7.23;59.62
66021;BME280;52789;59.980;30.346;2023-05-10T03:16:10;102334.69;;;12.73;46.30
66021;BME280;52789;59.980;30.346;2023-05-10T03:19:02;102329.91;;;13.53;43.38
66021;BME280;52789;59.980;30.346;2023-05-10T03:21:22;102331.50;;;14.30;42.58
66021;BME280;52789;59.980;30.346;2023-05-10T03:23:51;102327.09;;;14.84;41.34
66021;BME280;52789;59.980;30.346;2023-05-10T03:26:26;102326.66;;;15.50;40.66
66021;BME280;52789;59.980;30.346;2023-05-10T03:28:51;102330.00;;;16.30;39.30
66021;BME280;52789;59.980;30.346;2023-05-10T03:31:17;102333.69;;;16.71;38.15
66021;BME280;52789;59.980;30.346;2023-05-10T03:33:50;102330.94;;;16.63;38.05
66021;BME280;52789;59.980;30.346;2023-05-10T03:36:16;102327.09;;;15.89;38.77
66021;BME280;52789;59.980;30.346;2023-05-10T03:38:41;102339.66;;;15.01;40.16
66021;BME280;52789;59.980;30.346;2023-05-10T03:41:07;102334.44;;;14.00;41.34
66021;BME280;52789;59.980;30.346;2023-05-10T03:43:32;102338.53;;;13.18;43.12
66021;BME280;52789;59.980;30.346;2023-05-10T03:45:58;102335.94;;;12.59;44.40
66021;BME280;52789;59.980;30.346;2023-05-10T03:48:23;102336.47;;;12.13;45.85
66021;BME280;52789;59.980;30.346;2023-05-10T03:50:49;102332.81;;;11.83;46.66
66021;BME280;52789;59.980;30.346;2023-05-10T03:53:14;102335.69;;;12.22;45.75
66021;BME280;52789;59.980;30.346;2023-05-10T03:55:40;102335.84;;;12.30;44.75
66021;BME280;52789;59.980;30.346;2023-05-10T03:58:05;102332.66;;;12.05;44.10
66021;BME280;52789;59.980;30.346;2023-05-10T04:00:30;102335.81;;;11.90;43.03
66021;BME280;52789;59.980;30.346;2023-05-10T04:02:56;102340.75;;;11.94;43.89
66021;BME280;52789;59.980;30.346;2023-05-10T04:05:22;102342.66;;;12.13;42.29
66021;BME280;52789;59.980;30.346;2023-05-10T04:07:47;102341.25;;;12.49;40.74
66021;BME280;52789;59.980;30.346;2023-05-10T04:10:14;102334.31;;;13.06;40.79
66021;BME280;52789;59.980;30.346;2023-05-10T04:12:41;102330.94;;;13.99;39.62
66021;BME280;52789;59.980;30.346;2023-05-10T04:15:06;102339.13;;;15.15;37.72
66021;BME280;52789;59.980;30.346;2023-05-10T04:17:32;102330.47;;;15.39;35.90
66021;BME280;52789;59.980;30.346;2023-05-10T04:19:57;102329.44;;;14.51;35.63
66021;BME280;52789;59.980;30.346;2023-05-10T04:22:23;102330.94;;;13.43;36.80
66021;BME280;52789;59.980;30.346;2023-05-10T04:24:48;102337.06;;;12.56;37.93
66021;BME280;52789;59.980;30.346;2023-05-10T04:27:13;102330.34;;;11.91;38.62
66021;BME280;52789;59.980;30.346;2023-05-10T04:29:39;102331.44;;;11.47;40.05
66021;BME280;52789;59.980;30.346;2023-05-10T04:32:04;102331.31;;;12.21;40.45
66021;BME280;52789;59.980;30.346;2023-05-10T04:34:30;102329.13;;;13.90;38.24
66021;BME280;52789;59.980;30.346;2023-05-10T04:36:55;102327.03;;;14.21;36.99
66021;BME280;52789;59.980;30.346;2023-05-10T04:39:20;102335.13;;;13.55;37.70
66021;BME280;52789;59.980;30.346;2023-05-10T04:41:46;102341.97;;;12.70;37.38
66021;BME280;52789;59.980;30.346;2023-05-10T04:44:11;102337.63;;;12.60;38.84
66021;BME280;52789;59.980;30.346;2023-05-10T04:46:36;102332.88;;;14.07;37.13
66021;BME280;52789;59.980;30.346;2023-05-10T04:49:02;102337.63;;;15.74;34.97
66021;BME280;52789;59.980;30.346;2023-05-10T04:51:27;102343.50;;;16.96;32.98
66021;BME280;52789;59.980;30.346;2023-05-10T04:53:52;102337.63;;;17.74;30.23
66021;BME280;52789;59.980;30.346;2023-05-10T04:56:18;102337.31;;;18.16;29.58
66021;BME280;52789;59.980;30.346;2023-05-10T04:58:43;102340.63;;;18.35;29.89
66021;BME280;52789;59.980;30.346;2023-05-10T05:01:11;102346.06;;;18.18;27.64
66021;BME280;52789;59.980;30.346;2023-05-10T05:03:37;102354.59;;;17.91;29.01
66021;BME280;52789;59.980;30.346;2023-05-10T05:06:02;102344.84;;;17.33;29.23
66021;BME280;52789;59.980;30.346;2023-05-10T05:08:28;102352.53;;;15.95;30.35
66021;BME280;52789;59.980;30.346;2023-05-10T05:10:53;102349.34;;;14.76;32.87
66021;BME280;52789;59.980;30.346;2023-05-10T05:13:19;102349.22;;;13.67;33.17
66021;BME280;52789;59.980;30.346;2023-05-10T05:15:45;102340.63;;;13.15;34.47
66021;BME280;52789;59.980;30.346;2023-05-10T05:18:10;102350.88;;;12.81;35.78
66021;BME280;52789;59.980;30.346;2023-05-10T05:20:36;102353.78;;;12.58;36.27
66021;BME280;52789;59.980;30.346;2023-05-10T05:23:01;102350.78;;;12.42;34.41
66021;BME280;52789;59.980;30.346;2023-05-10T05:25:27;102344.56;;;12.32;35.63
66021;BME280;52789;59.980;30.346;2023-05-10T05:27:52;102352.56;;;12.22;35.13
66021;BME280;52789;59.980;30.346;2023-05-10T05:30:17;102348.59;;;12.17;35.99
66021;BME280;52789;59.980;30.346;2023-05-10T05:32:42;102346.44;;;12.10;37.18
66021;BME280;52789;59.980;30.346;2023-05-10T05:35:08;102345.88;;;12.07;37.35
66021;BME280;52789;59.980;30.346;2023-05-10T05:37:33;102343.59;;;12.02;38.00
66021;BME280;52789;59.980;30.346;2023-05-10T05:39:59;102340.75;;;11.94;38.39
66021;BME280;52789;59.980;30.346;2023-05-10T05:42:26;102341.31;;;11.88;38.75
66021;BME280;52789;59.980;30.346;2023-05-10T05:44:51;102336.19;;;11.85;38.47
66021;BME280;52789;59.980;30.346;2023-05-10T05:47:16;102339.13;;;11.82;39.20
66021;BME280;52789;59.980;30.346;2023-05-10T05:49:42;102341.94;;;11.81;40.40
66021;BME280;52789;59.980;30.346;2023-05-10T05:52:10;102344.94;;;11.87;41.02
66021;BME280;52789;59.980;30.346;2023-05-10T05:54:36;102343.25;;;11.86;40.86
66021;BME280;52789;59.980;30.346;2023-05-10T05:57:01;102343.25;;;11.86;41.23
66021;BME280;52789;59.980;30.346;2023-05-10T05:59:26;102346.03;;;11.85;41.81
66021;BME280;52789;59.980;30.346;2023-05-10T06:01:52;102339.00;;;11.84;42.47
66021;BME280;52789;59.980;30.346;2023-05-10T06:04:18;102335.34;;;11.85;43.91
66021;BME280;52789;59.980;30.346;2023-05-10T06:06:44;102344.09;;;11.87;43.50
66021;BME280;52789;59.980;30.346;2023-05-10T06:09:10;102343.00;;;11.89;44.72
66021;BME280;52789;59.980;30.346;2023-05-10T06:11:35;102337.78;;;11.88;44.06
66021;BME280;52789;59.980;30.346;2023-05-10T06:14:01;102335.25;;;11.86;43.76
66021;BME280;52789;59.980;30.346;2023-05-10T06:16:27;102331.47;;;11.89;44.40
66021;BME280;52789;59.980;30.346;2023-05-10T06:18:52;102333.88;;;11.92;44.96
66021;BME280;52789;59.980;30.346;2023-05-10T06:21:17;102327.16;;;11.97;44.48
66021;BME280;52789;59.980;30.346;2023-05-10T06:23:43;102336.84;;;11.98;45.11
66021;BME280;52789;59.980;30.346;2023-05-10T06:26:09;102329.09;;;11.95;44.59
66021;BME280;52789;59.980;30.346;2023-05-10T06:28:34;102337.41;;;12.02;44.68
66021;BME280;52789;59.980;30.346;2023-05-10T06:31:00;102332.22;;;12.00;46.08
66021;BME280;52789;59.980;30.346;2023-05-10T06:33:25;102338.00;;;12.05;44.90
66021;BME280;52789;59.980;30.346;2023-05-10T06:35:51;102341.09;;;12.10;45.26
66021;BME280;52789;59.980;30.346;2023-05-10T06:38:16;102344.75;;;12.09;46.22
66021;BME280;52789;59.980;30.346;2023-05-10T06:40:41;102341.66;;;12.14;45.37
66021;BME280;52789;59.980;30.346;2023-05-10T06:43:07;102343.97;;;12.19;45.25
66021;BME280;52789;59.980;30.346;2023-05-10T06:45:32;102346.38;;;12.22;45.13
66021;BME280;52789;59.980;30.346;2023-05-10T06:47:58;102343.00;;;12.20;45.17
66021;BME280;52789;59.980;30.346;2023-05-10T06:50:24;102347.63;;;12.18;45.37
66021;BME280;52789;59.980;30.346;2023-05-10T06:52:49;102347.06;;;12.24;45.41
66021;BME280;52789;59.980;30.346;2023-05-10T06:55:14;102337.53;;;12.31;45.37
66021;BME280;52789;59.980;30.346;2023-05-10T06:57:40;102344.56;;;12.32;45.59
66021;BME280;52789;59.980;30.346;2023-05-10T07:00:05;102349.34;;;12.38;45.61
66021;BME280;52789;59.980;30.346;2023-05-10T07:02:31;102350.78;;;12.42;45.78
66021;BME280;52789;59.980;30.346;2023-05-10T07:04:56;102350.41;;;12.47;44.92
66021;BME280;52789;59.980;30.346;2023-05-10T07:07:22;102349.69;;;12.45;45.07
66021;BME280;52789;59.980;30.346;2023-05-10T07:09:47;102360.25;;;12.46;45.16
66021;BME280;52789;59.980;30.346;2023-05-10T07:12:14;102355.88;;;12.45;45.06
66021;BME280;52789;59.980;30.346;2023-05-10T07:14:40;102366.84;;;12.52;45.09
66021;BME280;52789;59.980;30.346;2023-05-10T07:17:05;102349.44;;;12.57;45.56
66021;BME280;52789;59.980;30.346;2023-05-10T07:19:30;102353.66;;;12.60;46.46
66021;BME280;52789;59.980;30.346;2023-05-10T07:21:57;102357.88;;;12.62;45.63
66021;BME280;52789;59.980;30.346;2023-05-10T07:24:23;102352.81;;;12.59;45.59
66021;BME280;52789;59.980;30.346;2023-05-10T07:26:49;102360.97;;;12.67;45.32
66021;BME280;52789;59.980;30.346;2023-05-10T07:29:14;102353.69;;;12.79;46.25
66021;BME280;52789;59.980;30.346;2023-05-10T07:31:39;102362.72;;;12.88;44.20
66021;BME280;52789;59.980;30.346;2023-05-10T07:34:07;102362.16;;;12.94;44.65
66021;BME280;52789;59.980;30.346;2023-05-10T07:36:32;102355.69;;;13.06;44.19
66021;BME280;52789;59.980;30.346;2023-05-10T07:38:57;102355.69;;;13.16;44.08
66021;BME280;52789;59.980;30.346;2023-05-10T07:41:23;102355.16;;;13.22;44.17
66021;BME280;52789;59.980;30.346;2023-05-10T07:43:48;102356.88;;;13.32;43.71
66021;BME280;52789;59.980;30.346;2023-05-10T07:46:13;102352.34;;;13.43;43.13
66021;BME280;52789;59.980;30.346;2023-05-10T07:48:39;102358.50;;;13.53;42.17
66021;BME280;52789;59.980;30.346;2023-05-10T07:51:04;102349.78;;;13.60;41.60
66021;BME280;52789;59.980;30.346;2023-05-10T07:53:31;102357.94;;;13.69;41.34
66021;BME280;52789;59.980;30.346;2023-05-10T07:55:57;102361.28;;;13.80;40.27
66021;BME280;52789;59.980;30.346;2023-05-10T07:58:23;102353.38;;;13.88;40.68
66021;BME280;52789;59.980;30.346;2023-05-10T08:00:48;102354.34;;;13.97;40.17
66021;BME280;52789;59.980;30.346;2023-05-10T08:03:14;102358.97;;;14.05;40.28
66021;BME280;52789;59.980;30.346;2023-05-10T08:05:40;102355.53;;;14.12;39.71
66021;BME280;52789;59.980;30.346;2023-05-10T08:08:05;102361.19;;;14.19;39.66
66021;BME280;52789;59.980;30.346;2023-05-10T08:10:31;102359.50;;;14.18;39.48
66021;BME280;52789;59.980;30.346;2023-05-10T08:12:56;102357.50;;;14.20;40.12
66021;BME280;52789;59.980;30.346;2023-05-10T08:15:23;102352.16;;;14.20;39.57
66021;BME280;52789;59.980;30.346;2023-05-10T08:17:49;102355.22;;;14.25;39.12
66021;BME280;52789;59.980;30.346;2023-05-10T08:20:14;102358.91;;;14.24;38.66
66021;BME280;52789;59.980;30.346;2023-05-10T08:22:41;102359.75;;;14.24;39.35
66021;BME280;52789;59.980;30.346;2023-05-10T08:25:07;102362.16;;;14.18;39.52
66021;BME280;52789;59.980;30.346;2023-05-10T08:27:32;102357.22;;;14.23;39.79
66021;BME280;52789;59.980;30.346;2023-05-10T08:29:58;102365.63;;;14.28;39.49
66021;BME280;52789;59.980;30.346;2023-05-10T08:32:23;102362.22;;;14.36;39.80
66021;BME280;52789;59.980;30.346;2023-05-10T08:34:48;102355.72;;;14.38;38.66
66021;BME280;52789;59.980;30.346;2023-05-10T08:37:14;102365.75;;;14.36;39.06
66021;BME280;52789;59.980;30.346;2023-05-10T08:39:39;102361.81;;;14.31;38.43
66021;BME280;52789;59.980;30.346;2023-05-10T08:42:05;102357.53;;;14.10;39.01
66021;BME280;52789;59.980;30.346;2023-05-10T08:44:34;102358.66;;;14.17;39.67
66021;BME280;52789;59.980;30.346;2023-05-10T08:47:02;102356.91;;;14.26;39.75
66021;BME280;52789;59.980;30.346;2023-05-10T08:49:29;102355.22;;;14.25;39.65
66021;BME280;52789;59.980;30.346;2023-05-10T08:51:56;102359.88;;;14.23;40.29
66021;BME280;52789;59.980;30.346;2023-05-10T08:54:22;102351.56;;;14.16;41.05
66021;BME280;52789;59.980;30.346;2023-05-10T08:56:48;102349.88;;;14.15;40.93
66021;BME280;52789;59.980;30.346;2023-05-10T08:59:13;102348.78;;;14.08;42.01
66021;BME280;52789;59.980;30.346;2023-05-10T09:01:39;102361.50;;;14.06;41.96
66021;BME280;52789;59.980;30.346;2023-05-10T09:04:05;102350.63;;;14.08;42.27
66021;BME280;52789;59.980;30.346;2023-05-10T09:06:31;102355.81;;;14.19;42.11
66021;BME280;52789;59.980;30.346;2023-05-10T09:08:57;102342.50;;;14.27;42.34
66021;BME280;52789;59.980;30.346;2023-05-10T09:11:23;102359.97;;;14.31;42.42
66021;BME280;52789;59.980;30.346;2023-05-10T09:13:49;102347.03;;;14.26;42.03
66021;BME280;52789;59.980;30.346;2023-05-10T09:16:15;102347.56;;;14.30;42.18
66021;BME280;52789;59.980;30.346;2023-05-10T09:18:41;102348.81;;;14.36;42.25
66021;BME280;52789;59.980;30.346;2023-05-10T09:21:06;102349.34;;;14.39;41.76
66021;BME280;52789;59.980;30.346;2023-05-10T09:23:32;102343.00;;;14.40;42.12
66021;BME280;52789;59.980;30.346;2023-05-10T09:26:06;102348.09;;;14.43;42.04
66021;BME280;52789;59.980;30.346;2023-05-10T09:28:32;102353.72;;;14.40;42.12
66021;BME280;52789;59.980;30.346;2023-05-10T09:30:58;102348.34;;;14.40;42.54
66021;BME280;52789;59.980;30.346;2023-05-10T09:33:23;102347.81;;;14.46;42.50
66021;BME280;52789;59.980;30.346;2023-05-10T09:35:49;102345.69;;;14.50;42.57
66021;BME280;52789;59.980;30.346;2023-05-10T09:38:16;102338.19;;;14.53;42.01
66021;BME280;52789;59.980;30.346;2023-05-10T09:40:41;102341.16;;;14.50;42.05
66021;BME280;52789;59.980;30.346;2023-05-10T09:43:19;102343.84;;;14.50;42.26
66021;BME280;52789;59.980;30.346;2023-05-10T09:45:45;102339.88;;;14.54;42.12
66021;BME280;52789;59.980;30.346;2023-05-10T09:48:13;102339.25;;;14.61;41.83
66021;BME280;52789;59.980;30.346;2023-05-10T09:50:38;102332.13;;;14.69;41.60
66021;BME280;52789;59.980;30.346;2023-05-10T09:53:03;102341.13;;;14.78;41.08
66021;BME280;52789;59.980;30.346;2023-05-10T09:55:39;102344.97;;;14.75;39.72
66021;BME280;52789;59.980;30.346;2023-05-10T09:58:05;102341.13;;;14.78;39.51
66021;BME280;52789;59.980;30.346;2023-05-10T10:00:38;102340.66;;;14.82;40.15
66021;BME280;52789;59.980;30.346;2023-05-10T10:03:04;102335.47;;;14.81;39.81
66021;BME280;52789;59.980;30.346;2023-05-10T10:05:33;102342.50;;;14.82;39.90
66021;BME280;52789;59.980;30.346;2023-05-10T10:07:59;102347.25;;;14.88;39.54
66021;BME280;52789;59.980;30.346;2023-05-10T10:10:25;102341.28;;;14.94;39.75
66021;BME280;52789;59.980;30.346;2023-05-10T10:12:51;102335.13;;;15.02;39.82
66021;BME280;52789;59.980;30.346;2023-05-10T10:15:17;102343.03;;;15.03;39.53
66021;BME280;52789;59.980;30.346;2023-05-10T10:17:42;102330.34;;;15.05;39.07
66021;BME280;52789;59.980;30.346;2023-05-10T10:20:08;102332.03;;;15.06;38.92
66021;BME280;52789;59.980;30.346;2023-05-10T10:22:34;102327.88;;;15.12;37.94
66021;BME280;52789;59.980;30.346;2023-05-10T10:24:59;102333.47;;;15.18;38.45
66021;BME280;52789;59.980;30.346;2023-05-10T10:27:32;102339.88;;;15.26;38.15
66021;BME280;52789;59.980;30.346;2023-05-10T10:32:55;102325.63;;;15.25;37.01
66021;BME280;52789;59.980;30.346;2023-05-10T10:35:25;102333.91;;;15.32;37.42
66021;BME280;52789;59.980;30.346;2023-05-10T10:37:50;102332.78;;;15.34;36.44
66021;BME280;52789;59.980;30.346;2023-05-10T10:40:26;102328.78;;;15.38;37.06
66021;BME280;52789;59.980;30.346;2023-05-10T10:42:52;102324.25;;;15.39;36.16
66021;BME280;52789;59.980;30.346;2023-05-10T10:45:18;102325.94;;;15.40;35.74
66021;BME280;52789;59.980;30.346;2023-05-10T10:47:44;102319.88;;;15.38;36.42
66021;BME280;52789;59.980;30.346;2023-05-10T10:50:10;102310.50;;;15.42;36.14
66021;BME280;52789;59.980;30.346;2023-05-10T10:52:41;102311.88;;;15.46;36.86
66021;BME280;52789;59.980;30.346;2023-05-10T10:57:48;102313.59;;;15.55;35.95
66021;BME280;52789;59.980;30.346;2023-05-10T11:00:30;102311.91;;;15.54;36.19
66021;BME280;52789;59.980;30.346;2023-05-10T11:02:57;102306.56;;;15.54;36.60
66021;BME280;52789;59.980;30.346;2023-05-10T11:07:58;102310.34;;;15.61;36.39
66021;BME280;52789;59.980;30.346;2023-05-10T11:10:24;102306.03;;;15.68;35.94
66021;BME280;52789;59.980;30.346;2023-05-10T11:13:02;102309.72;;;15.67;35.36
66021;BME280;52789;59.980;30.346;2023-05-10T11:15:32;102309.88;;;15.66;34.70
66021;BME280;52789;59.980;30.346;2023-05-10T11:17:58;102301.34;;;15.70;34.35
66021;BME280;52789;59.980;30.346;2023-05-10T11:20:26;102311.41;;;15.68;34.79
66021;BME280;52789;59.980;30.346;2023-05-10T11:22:58;102301.66;;;15.67;34.64
66021;BME280;52789;59.980;30.346;2023-05-10T11:25:39;102302.16;;;15.71;34.31
66021;BME280;52789;59.980;30.346;2023-05-10T11:28:05;102292.47;;;15.78;33.23
66021;BME280;52789;59.980;30.346;2023-05-10T11:30:31;102287.94;;;15.78;33.28
66021;BME280;52789;59.980;30.346;2023-05-10T11:32:56;102291.97;;;15.83;33.68
66021;BME280;52789;59.980;30.346;2023-05-10T11:35:21;102288.13;;;15.85;33.02
66021;BME280;52789;59.980;30.346;2023-05-10T11:37:47;102292.19;;;15.89;31.95
66021;BME280;52789;59.980;30.346;2023-05-10T11:40:13;102292.34;;;15.88;32.24
66021;BME280;52789;59.980;30.346;2023-05-10T11:42:38;102279.56;;;15.82;31.65
66021;BME280;52789;59.980;30.346;2023-05-10T11:45:04;102286.56;;;15.74;31.56
66021;BME280;52789;59.980;30.346;2023-05-10T11:47:30;102284.56;;;15.76;33.05
66021;BME280;52789;59.980;30.346;2023-05-10T11:49:57;102284.25;;;15.79;32.06
66021;BME280;52789;59.980;30.346;2023-05-10T11:52:23;102275.88;;;15.83;31.53
66021;BME280;52789;59.980;30.346;2023-05-10T11:54:51;102279.59;;;15.90;31.21
66021;BME280;52789;59.980;30.346;2023-05-10T11:57:18;102276.97;;;15.98;31.17
66021;BME280;52789;59.980;30.346;2023-05-10T11:59:43;102272.75;;;15.95;31.25
66021;BME280;52789;59.980;30.346;2023-05-10T12:02:09;102275.78;;;16.00;31.85
66021;BME280;52789;59.980;30.346;2023-05-10T12:04:35;102273.28;;;15.99;30.71
66021;BME280;52789;59.980;30.346;2023-05-10T12:07:00;102268.41;;;16.02;30.73
66021;BME280;52789;59.980;30.346;2023-05-10T12:09:25;102268.94;;;16.06;30.61
66021;BME280;52789;59.980;30.346;2023-05-10T12:11:54;102276.16;;;16.05;29.98
66021;BME280;52789;59.980;30.346;2023-05-10T12:14:21;102269.41;;;16.01;29.63
66021;BME280;52789;59.980;30.346;2023-05-10T12:16:47;102268.41;;;16.02;30.11
66021;BME280;52789;59.980;30.346;2023-05-10T12:19:12;102263.38;;;15.99;30.00
66021;BME280;52789;59.980;30.346;2023-05-10T12:21:43;102265.22;;;15.99;30.48
66021;BME280;52789;59.980;30.346;2023-05-10T12:24:09;102261.53;;;16.00;30.45
66021;BME280;52789;59.980;30.346;2023-05-10T12:26:35;102260.84;;;15.98;29.97
66021;BME280;52789;59.980;30.346;2023-05-10T12:31:52;102255.13;;;16.01;30.23
66021;BME280;52789;59.980;30.346;2023-05-10T12:34:24;102260.19;;;16.04;30.78
66021;BME280;52789;59.980;30.346;2023-05-10T12:36:53;102264.41;;;16.06;29.94
66021;BME280;52789;59.980;30.346;2023-05-10T12:39:18;102259.34;;;16.03;30.31
66021;BME280;52789;59.980;30.346;2023-05-10T12:41:44;102259.19;;;16.05;30.62
66021;BME280;52789;59.980;30.346;2023-05-10T12:44:09;102259.69;;;16.08;30.49
66021;BME280;52789;59.980;30.346;2023-05-10T12:46:35;102248.09;;;16.08;31.00
66021;BME280;52789;59.980;30.346;2023-05-10T12:49:00;102258.53;;;16.11;31.48
66021;BME280;52789;59.980;30.346;2023-05-10T12:51:26;102254.16;;;16.10;31.46
66021;BME280;52789;59.980;30.346;2023-05-10T12:53:51;102252.97;;;16.13;31.45
66021;BME280;52789;59.980;30.346;2023-05-10T12:56:17;102250.97;;;16.15;31.61
66021;BME280;52789;59.980;30.346;2023-05-10T12:58:43;102246.59;;;16.14;31.95
66021;BME280;52789;59.980;30.346;2023-05-10T13:01:13;102244.44;;;16.17;32.03
66021;BME280;52789;59.980;30.346;2023-05-10T13:03:38;102247.16;;;16.25;31.94
66021;BME280;52789;59.980;30.346;2023-05-10T13:06:04;102244.31;;;16.27;31.69
66021;BME280;52789;59.980;30.346;2023-05-10T13:08:31;102250.53;;;16.27;31.88
66021;BME280;52789;59.980;30.346;2023-05-10T13:10:58;102250.53;;;16.27;31.32